Pagrindinis puslapis
METAR-TAF:

METAR-TAF

Oro uostai :

Chulitna, Aliaska, Jungtinės Amerikos Valstijos

platuma: 62-53N, ilguma: 149-50W, Aukštis: 381 m

Dabartinis oras

Ataskaita buvo paskelbta 47 minutes, ne 20:48 UTC
Vėjas 6 kt iš Šiaurės
Temperatūra 9°C
Drėgmė 43%
Slėgis 993 hPa
Matomumas: 24.1 km
Išsisklaidę debesys ne aukštis 3000 ft
Su prošvaistėmis ne aukštis 4000 ft

METAR: PAEC 212048Z 01006KT 15SM SCT030 BKN040 09/M03 A2933 RMK NOSPECI

Laikas: 13:35 (21:35 UTC)


TAF: trūkstamas

Orai ataskaitas ir orų prognozės (METAR, TAF).

turimą stotys yra geltonos ir raudonos taškus žemėlapyje.

Perkelti pele per norėdami pamatyti stoties vardą.

Tada spustelėkite, norėdami matyti oro stebėjimo ir prognozės.

Norėdami pakeisti žemėlapį: spustelėkite ant žalios mygtukų su juodo kryžiaus žemyn,; žalią mygtuką su brūkšneliu, jei norite nutolinti; arba žalių rodyklių gretimoms žemėlapius.


METAR-TAF: